Latest Weather Observations for PORTABLE BTSE (DFES)

IDW60801

Issued at 11:33 pm WST Tuesday 7 December 2021 (issued every 10 minutes, with the page automatically refreshed every 10 minutes)

About weather observations | Map of weather stations | Latest weather observations for WA | Other Formats
Station Details ID: 250120 Name: DFES PORTABLE AWS E Lat: -16.42 Lon: 126.44 Height: 10.0 m

Portable automatic weather stations (PAWS) are operated by other organisations, such as Fire and Emergency Services, and are included here by agreement. Portable stations may be deployed to a location for a short period and their location may be subject to change without notice. Wind observations from these stations are provided from heights of either three (3) or ten (10) metres above ground level (AGL).

Data from the previous 72 hours. | See also: Recent months for locations in Western Australia
Date/Time
WST
Temp
°C
App
Temp
°C
Dew
Point
°C
Rel
Hum
%
Delta-T
°C
Wind Press
QNH
hPa
Press
MSL
hPa
Rain since
9am
mm
Dir  Spd
km/h
Gust
km/h
Spd
kts
Gust
kts
07/11:20pm 27.8 30.6 20.5 64 4.8 SE 6 9 3 5 - - 0.0
07/11:10pm 27.8 28.9 20.4 64 4.9 N 15 24 8 13 - - 0.0
07/11:00pm 27.8 28.1 20.5 64 4.8 N 19 30 10 16 - - 0.0
07/10:50pm 28.0 27.9 20.7 64 4.8 N 22 30 12 16 - - 0.0
07/10:40pm 28.3 28.7 20.9 64 4.9 N 20 30 11 16 - - 0.0
07/10:30pm 28.7 28.8 21.1 63 5.1 N 22 33 12 18 - - 0.0
07/10:20pm 29.4 29.7 19.7 56 6.3 N 17 20 9 11 - - 0.0
07/10:10pm 29.6 28.2 18.9 52 6.9 NNW 24 28 13 15 - - 0.0
07/10:00pm 29.9 29.1 18.5 50 7.3 NNW 20 28 11 15 - - 0.0
07/09:50pm 30.2 28.9 18.2 48 7.7 NW 22 33 12 18 - - 0.0
07/09:40pm 30.3 30.3 18.1 48 7.8 NNW 15 20 8 11 - - 0.0
07/09:30pm 30.3 31.1 18.2 48 7.8 W 11 15 6 8 - - 0.0
07/09:20pm 30.3 30.7 18.1 48 7.8 W 13 15 7 8 - - 0.0
07/09:10pm 30.2 30.7 18.4 49 7.6 WNW 13 15 7 8 - - 0.0
07/09:00pm 30.2 31.9 18.4 49 7.6 W 7 9 4 5 - - 0.0
07/08:50pm 30.3 32.1 18.3 48 7.7 NW 6 9 3 5 - - 0.0
07/08:40pm 30.3 32.0 18.5 49 7.6 WSW 7 9 4 5 - - 0.0
07/08:30pm 30.5 32.2 18.4 48 7.8 WSW 7 9 4 5 - - 0.0
07/08:20pm 30.7 31.6 18.4 47 7.9 WSW 11 13 6 7 - - 0.0
07/08:10pm 30.8 30.9 18.3 47 8.0 W 15 17 8 9 - - 0.0
07/08:00pm 31.0 30.3 18.3 46 8.2 W 19 24 10 13 - - 0.0
07/07:50pm 31.2 30.0 18.3 46 8.3 W 22 26 12 14 - - 0.0
07/07:40pm 31.5 29.9 18.3 45 8.5 WSW 24 33 13 18 - - 0.0
07/07:30pm 32.2 31.0 18.5 44 8.9 WSW 22 28 12 15 - - 0.0
07/07:20pm 32.6 32.1 18.6 43 9.1 W 19 22 10 12 - - 0.0
07/07:10pm 32.8 30.9 18.6 43 9.2 W 26 33 14 18 - - 0.0
07/07:00pm 33.3 31.6 18.2 40 9.8 W 24 32 13 17 - - 0.0
07/06:50pm 33.7 33.0 14.4 31 11.9 N 11 13 6 7 - - 0.0
07/06:40pm 33.8 32.3 14.3 31 12.0 NNE 15 19 8 10 - - 0.0
07/06:30pm 34.2 32.3 14.2 30 12.3 NE 17 20 9 11 - - 0.0
07/06:20pm 34.4 32.1 14.1 29 12.5 NE 19 22 10 12 - - 0.0
07/06:10pm 34.7 31.8 14.1 29 12.6 ENE 22 26 12 14 - - 0.0
07/06:00pm 35.0 32.1 14.0 28 12.9 ENE 22 28 12 15 - - 0.0
07/05:50pm 35.2 32.7 14.0 28 13.0 ENE 20 24 11 13 - - 0.0
07/05:40pm 35.5 32.2 14.0 27 13.2 ENE 24 28 13 15 - - 0.0
07/05:30pm 35.8 32.9 14.0 27 13.4 ENE 22 26 12 14 - - 0.0
07/05:20pm 36.1 32.8 14.0 26 13.6 NE 24 28 13 15 - - 0.0
07/05:10pm 36.4 32.7 13.8 26 13.9 NE 26 32 14 17 - - 0.0
07/05:00pm 36.9 33.3 14.1 25 14.1 ENE 26 32 14 17 - - 0.0
07/04:50pm 37.7 33.9 13.6 23 14.9 NE 26 30 14 16 - - 0.0
07/04:40pm 38.1 33.8 13.3 22 15.2 NE 28 35 15 19 - - 0.0
07/04:30pm 38.3 34.8 13.5 23 15.3 ENE 24 28 13 15 - - 0.0
07/04:20pm 38.6 35.1 13.3 22 15.6 ENE 24 32 13 17 - - 0.0
07/04:10pm 38.6 35.4 13.0 21 15.7 E 22 32 12 17 - - 0.0
07/04:00pm 39.1 36.6 13.4 21 15.9 E 19 26 10 14 - - 0.0
07/03:50pm 39.0 36.0 12.6 20 16.1 NE 20 28 11 15 - - 0.0
07/03:40pm 39.3 36.7 12.0 19 16.5 ENE 17 22 9 12 - - 0.0
07/03:30pm 39.5 36.5 12.0 19 16.7 ENE 19 30 10 16 - - 0.0
07/03:20pm 39.4 36.3 12.2 19 16.5 ENE 20 28 11 15 - - 0.0
07/03:10pm 39.2 36.1 12.2 20 16.4 NNE 20 26 11 14 - - 0.0
07/03:00pm 38.9 36.1 13.1 21 15.9 ENE 20 30 11 16 - - 0.0
07/02:50pm 39.5 35.3 13.6 21 16.1 NE 28 35 15 19 - - 0.0
07/02:40pm 39.3 37.0 13.0 21 16.2 E 17 26 9 14 - - 0.0
07/02:30pm 39.1 35.5 12.9 21 16.1 NE 24 35 13 19 - - 0.0
07/02:20pm 40.2 36.6 13.1 20 16.7 E 24 33 13 18 - - 0.0
07/02:10pm 40.2 38.1 12.5 19 17.0 - 15 24 8 13 - - 0.0
07/02:00pm 39.9 38.7 12.7 20 16.7 NNE 11 17 6 9 - - 0.0
07/01:50pm 39.6 36.7 13.0 20 16.4 ENE 20 28 11 15 - - 0.0
07/01:40pm 39.4 36.8 12.0 19 16.6 WSW 17 30 9 16 - - 0.0
07/01:30pm 39.1 35.2 12.2 20 16.3 N 24 41 13 22 - - 0.0
07/01:20pm 39.2 37.2 12.6 20 16.2 N 15 28 8 15 - - 0.0
07/01:10pm 38.9 36.4 14.2 23 15.4 NE 20 33 11 18 - - 0.0
07/01:00pm 38.9 34.7 13.6 22 15.7 E 28 35 15 19 - - 0.0
07/12:50pm 38.5 35.1 13.6 22 15.4 N 24 37 13 20 - - 0.0
07/12:40pm 38.1 36.2 14.2 24 14.9 NNE 17 35 9 19 - - 0.0
07/12:30pm 38.8 37.1 13.7 22 15.5 NNE 15 24 8 13 - - 0.0
07/12:20pm 38.8 35.9 12.9 21 15.9 NNW 20 33 11 18 - - 0.0
07/12:10pm 38.4 35.3 13.3 22 15.4 ENE 22 35 12 19 - - 0.0
07/12:00pm 37.9 35.5 14.5 25 14.6 NNE 20 33 11 18 - - 0.0
07/11:50am 38.1 33.9 14.7 25 14.7 NE 30 37 16 20 - - 0.0
07/11:40am 37.5 35.0 14.1 24 14.5 ENE 20 30 11 16 - - 0.0
07/11:30am 37.4 33.5 14.5 25 14.3 ENE 28 35 15 19 - - 0.0
07/11:20am 37.4 34.2 15.4 27 13.9 ENE 26 41 14 22 - - 0.0
07/11:10am 37.0 35.0 15.4 27 13.6 NNE 20 35 11 19 - - 0.0
07/11:00am 37.0 32.7 14.5 26 14.0 ENE 30 39 16 21 - - 0.0
07/10:50am 37.1 32.5 13.5 24 14.5 NE 30 41 16 22 - - 0.0
07/10:40am 36.6 33.9 14.7 27 13.7 NE 22 37 12 20 - - 0.0
07/10:30am 36.2 34.1 14.8 28 13.3 N 19 28 10 15 - - 0.0
07/10:20am 36.3 33.8 15.2 28 13.2 N 22 28 12 15 - - 0.0
07/10:10am 35.9 32.7 15.4 29 12.9 NE 26 35 14 19 - - 0.0
07/10:00am 35.4 34.2 16.2 32 12.2 NNE 17 30 9 16 - - 0.0
07/09:50am 35.1 33.7 16.5 33 11.8 N 19 26 10 14 - - 0.0
07/09:40am 35.1 34.6 16.9 34 11.6 E 15 20 8 11 - - 0.0
07/09:30am 34.5 33.9 17.6 36 10.9 E 17 26 9 14 - - 0.0
07/09:20am 34.2 34.0 17.7 37 10.6 E 15 19 8 10 - - 0.0
07/09:10am 34.1 33.1 17.5 37 10.7 ENE 19 26 10 14 - - 0.0
07/09:00am 33.6 34.3 17.9 39 10.1 NW 11 17 6 9 - - 0.0
07/08:50am 33.2 32.9 18.3 41 9.7 NW 17 24 9 13 - - 0.0
07/08:40am 32.8 32.3 16.9 38 10.1 N 15 26 8 14 - - 0.0
07/08:30am 32.7 33.0 17.8 41 9.6 NNE 13 19 7 10 - - 0.0
07/08:20am 32.2 31.9 16.5 39 9.9 NNW 13 22 7 12 - - 0.0
07/08:10am 32.0 32.6 18.6 45 8.7 WNW 13 22 7 12 - - 0.0
07/08:00am 31.5 32.8 19.4 48 7.9 NNW 11 19 6 10 - - 0.0
07/07:50am 30.7 32.7 20.0 52 7.1 SW 9 15 5 8 - - 0.0
07/07:40am 30.3 32.7 20.1 54 6.7 W 7 13 4 7 - - 0.0
07/07:30am 29.8 31.4 19.9 55 6.5 W 11 17 6 9 - - 0.0
07/07:20am 29.6 31.3 20.2 57 6.2 WNW 11 17 6 9 - - 0.0
07/07:10am 29.3 31.1 20.3 58 5.9 WNW 11 19 6 10 - - 0.0
07/07:00am 28.8 31.0 20.5 61 5.5 W 9 15 5 8 - - 0.0
07/06:50am 28.4 30.3 20.5 62 5.2 NW 11 19 6 10 - - 0.0
07/06:40am 27.9 30.2 20.6 64 4.8 W 9 13 5 7 - - 0.0
07/06:30am 27.6 29.2 20.7 66 4.6 W 13 17 7 9 - - 0.0
07/06:20am 27.3 28.8 20.6 67 4.4 WNW 13 17 7 9 - - 0.0
07/06:10am 27.0 28.5 20.6 68 4.2 NW 13 22 7 12 - - 0.0
07/06:00am 26.7 28.2 20.5 69 4.1 NW 13 17 7 9 - - 0.0
07/05:50am 26.5 29.1 20.4 69 4.0 NW 7 13 4 7 - - 0.0
07/05:40am 26.2 27.5 20.1 69 4.0 NW 13 17 7 9 - - 0.0
07/05:30am 26.0 27.6 19.9 69 4.0 NNW 11 15 6 8 - - 0.0
07/05:20am 25.9 27.1 19.8 69 4.0 NNW 13 17 7 9 - - 0.0
07/05:10am 25.8 27.2 19.6 68 4.0 NNW 11 15 6 8 - - 0.0
07/05:00am 25.9 27.3 19.5 68 4.1 NW 11 15 6 8 - - 0.0
07/04:50am 26.0 26.1 19.2 66 4.4 WNW 17 20 9 11 - - 0.0
07/04:40am 25.8 25.9 19.1 66 4.3 WNW 17 20 9 11 - - 0.0
07/04:30am 25.3 26.8 19.0 68 4.0 NNW 9 17 5 9 - - 0.0
07/04:20am 25.1 27.4 18.6 67 4.1 NNE 4 7 2 4 - - 0.0
07/04:10am 25.1 27.1 18.8 68 4.0 SE 6 7 3 4 - - 0.0
07/04:00am 25.5 27.6 19.0 67 4.2 S 6 6 3 3 - - 0.0
07/03:50am 26.1 29.0 19.1 65 4.5 N 2 6 1 3 - - 0.0
07/03:40am 26.3 28.3 18.8 63 4.8 WNW 6 7 3 4 - - 0.0
07/03:30am 26.4 28.2 18.7 62 4.9 NW 7 9 4 5 - - 0.0
07/03:20am 26.6 28.3 18.6 61 5.1 NNW 7 7 4 4 - - 0.0
07/03:10am 26.8 28.5 18.5 60 5.3 NNW 7 9 4 5 - - 0.0
07/03:00am 27.0 28.7 18.4 59 5.5 NNW 7 9 4 5 - - 0.0
07/02:50am 27.2 28.8 18.3 58 5.7 WNW 7 13 4 7 - - 0.0
07/02:40am 27.3 27.7 18.2 57 5.8 WNW 13 15 7 8 - - 0.0
07/02:30am 27.3 27.6 18.0 56 5.9 WNW 13 15 7 8 - - 0.0
07/02:20am 27.3 28.0 17.9 56 5.9 NW 11 13 6 7 - - 0.0
07/02:10am 27.2 27.4 17.7 56 6.0 NNW 13 19 7 10 - - 0.0
07/02:00am 27.1 27.7 17.7 56 5.9 NW 11 11 6 6 - - 0.0
07/01:50am 27.1 28.1 17.8 56 5.9 WNW 9 11 5 6 - - 0.0
07/01:40am 27.1 28.0 17.6 56 6.0 NW 9 11 5 6 - - 0.0
07/01:30am 27.2 28.4 17.4 55 6.2 WNW 7 11 4 6 - - 0.0
07/01:20am 27.3 28.1 17.2 54 6.3 WNW 9 13 5 7 - - 0.0
07/01:10am 27.3 28.0 17.1 53 6.4 NNW 9 11 5 6 - - 0.0
07/01:00am 27.3 28.4 17.0 53 6.4 N 7 13 4 7 - - 0.0
07/12:50am 27.3 26.9 17.1 53 6.4 NNE 15 17 8 9 - - 0.0
07/12:40am 27.3 27.3 17.1 53 6.4 NNE 13 15 7 8 - - 0.0
07/12:30am 27.4 27.4 17.2 53 6.4 E 13 24 7 13 - - 0.0
07/12:20am 28.2 27.2 17.5 52 6.8 E 19 28 10 15 - - 0.0
07/12:10am 29.0 28.5 16.9 48 7.6 W 15 22 8 12 - - 0.0
07/12:00am 28.9 27.5 16.5 47 7.7 W 19 24 10 13 - - 0.0
 
Date/Time
WST
Temp
°C
App
Temp
°C
Dew
Point
°C
Rel
Hum
%
Delta-T
°C
Wind Press
QNH
hPa
Press
MSL
hPa
Rain since
9am
mm
Dir  Spd
km/h
Gust
km/h
Spd
kts
Gust
kts
06/11:50pm 28.5 28.5 16.3 47 7.6 WSW 11 15 6 8 - - 0.0
06/11:40pm 28.1 28.6 16.6 49 7.2 WSW 9 15 5 8 - - 0.0
06/11:30pm 27.6 28.2 16.9 52 6.7 SW 9 13 5 7 - - 0.0
06/11:20pm 27.2 28.3 17.2 54 6.3 SW 7 9 4 5 - - 0.0
06/11:10pm 27.1 28.2 17.1 54 6.2 WSW 7 9 4 5 - - 0.0
06/11:00pm 27.1 27.8 17.0 54 6.3 WSW 9 13 5 7 - - 0.0
06/10:50pm 27.2 27.8 16.9 53 6.4 SSW 9 11 5 6 - - 0.0
06/10:40pm 27.5 28.4 16.7 51 6.7 W 7 9 4 5 - - 0.0
06/10:30pm 27.8 28.3 16.6 50 7.0 WNW 9 13 5 7 - - 0.0
06/10:20pm 27.7 28.8 16.5 50 6.9 W 6 7 3 4 - - 0.0
06/10:10pm 27.7 28.5 16.3 49 7.1 SE 7 11 4 6 - - 0.0
06/10:00pm 27.2 26.7 16.0 50 6.9 ESE 13 20 7 11 - - 0.0
06/09:50pm 26.4 27.6 17.3 57 5.7 SE 7 13 4 7 - - 0.0
06/09:40pm 26.6 27.8 17.4 57 5.8 SE 7 9 4 5 - - 0.0
06/09:30pm 26.9 28.3 17.3 55 6.0 S 6 7 3 4 - - 0.0
06/09:20pm 27.2 28.3 17.2 54 6.3 SSW 7 11 4 6 - - 0.0
06/09:10pm 27.4 27.7 17.0 53 6.5 W 11 13 6 7 - - 0.0
06/09:00pm 27.5 27.8 17.0 52 6.6 W 11 13 6 7 - - 0.0
06/08:50pm 27.5 27.0 17.0 52 6.6 NNE 15 28 8 15 - - 0.0
06/08:40pm 27.9 25.6 17.5 53 6.6 NE 26 30 14 16 - - 0.0
06/08:30pm 28.5 25.1 18.2 53 6.6 NE 33 44 18 24 - - 0.0
06/08:20pm 30.1 26.0 17.4 46 8.1 NE 35 50 19 27 - - 0.0
06/08:10pm 30.6 28.6 15.6 40 9.3 NNE 20 39 11 21 - - 0.0
06/08:00pm 30.5 30.4 16.0 41 9.0 NNW 11 15 6 8 - - 0.0
06/07:50pm 30.6 32.0 16.4 42 8.9 N 4 9 2 5 - - 0.0
06/07:40pm 30.9 31.9 16.3 41 9.1 WSW 6 7 3 4 - - 0.0
06/07:30pm 31.1 31.5 16.2 40 9.3 W 9 19 5 10 - - 0.0
06/07:20pm 31.1 32.2 16.6 41 9.1 NW 6 7 3 4 - - 0.0
06/07:10pm 31.3 32.5 16.8 41 9.2 N 6 7 3 4 - - 0.0
06/07:00pm 31.4 32.0 16.7 41 9.3 W 9 11 5 6 - - 0.0
06/06:50pm 31.4 31.6 16.7 41 9.3 W 11 13 6 7 - - 0.0
06/06:40pm 31.6 32.3 17.1 41 9.2 WNW 9 15 5 8 - - 0.0
06/06:30pm 31.8 30.7 17.3 42 9.2 WNW 19 22 10 12 - - 0.0
06/06:20pm 32.2 30.8 17.0 40 9.6 W 20 28 11 15 - - 0.0
06/06:10pm 32.5 31.7 17.2 40 9.7 NW 17 19 9 10 - - 0.0
06/06:00pm 32.8 31.6 17.1 39 10.0 NW 19 22 10 12 - - 0.0
06/05:50pm 33.2 32.8 17.2 38 10.2 WNW 15 24 8 13 - - 0.0
06/05:40pm 33.5 33.2 17.3 38 10.4 NW 15 19 8 10 - - 0.0
06/05:30pm 33.8 32.7 17.2 37 10.6 WNW 19 28 10 15 - - 0.0
06/05:20pm 34.7 33.5 17.5 36 11.1 WNW 20 33 11 18 - - 0.0
06/05:10pm 35.5 34.9 15.7 30 12.5 N 13 15 7 8 - - 0.0
06/05:00pm 35.6 34.6 15.7 30 12.5 NNE 15 17 8 9 - - 0.0
06/04:50pm 35.8 34.5 15.7 30 12.7 NNE 17 20 9 11 - - 0.0
06/04:40pm 36.1 35.4 15.3 29 13.1 NNE 13 15 7 8 - - 0.0
06/04:30pm 36.3 35.8 15.0 28 13.3 NE 11 15 6 8 - - 0.0
06/04:20pm 36.3 35.5 15.0 28 13.3 ENE 13 19 7 10 - - 0.0
06/04:10pm 36.5 35.3 15.0 27 13.5 NNE 15 20 8 11 - - 0.0
06/04:00pm 37.1 35.1 15.4 27 13.7 ENE 20 24 11 13 - - 0.0
06/03:50pm 38.1 35.4 15.5 26 14.3 ENE 24 28 13 15 - - 0.0
06/03:40pm 38.5 36.1 15.3 25 14.7 NE 22 30 12 16 - - 0.0
06/03:30pm 38.4 37.1 15.8 26 14.4 N 17 22 9 12 - - 0.0
06/03:20pm 38.8 38.6 15.7 25 14.7 NNW 11 22 6 12 - - 0.0
06/03:10pm 38.4 37.9 14.8 24 14.8 ENE 11 15 6 8 - - 0.0
06/03:00pm 37.9 36.4 15.4 26 14.2 NNE 17 30 9 16 - - 0.0
06/02:50pm 38.3 36.3 15.0 25 14.7 NE 19 30 10 16 - - 0.0
06/02:40pm 38.4 36.0 15.4 25 14.6 NE 22 30 12 16 - - 0.0
06/02:30pm 38.2 36.6 15.9 26 14.2 ENE 19 26 10 14 - - 0.0
06/02:20pm 38.3 36.8 16.2 27 14.1 NW 19 26 10 14 - - 0.0
06/02:10pm 38.2 37.7 16.9 28 13.8 NW 15 24 8 13 - - 0.0
06/02:00pm 38.2 37.8 16.3 27 14.0 NNE 13 22 7 12 - - 0.0
06/01:50pm 37.6 36.2 16.5 28 13.5 NW 19 30 10 16 - - 0.0
06/01:40pm 37.7 35.8 16.8 29 13.5 NNW 22 26 12 14 - - 0.0
06/01:30pm 37.8 36.1 17.2 29 13.3 NNE 22 28 12 15 - - 0.0
06/01:20pm 37.5 36.7 17.0 30 13.2 NNE 17 22 9 12 - - 0.0
06/01:10pm 37.8 36.2 17.4 30 13.2 NNE 22 32 12 17 - - 0.0
06/01:00pm 37.5 36.5 17.5 30 13.0 NE 19 28 10 15 - - 0.0
06/12:50pm 37.2 35.5 17.3 31 12.9 NE 22 32 12 17 - - 0.0
06/12:40pm 36.7 36.0 17.3 31 12.5 N 17 26 9 14 - - 0.0
06/12:30pm 36.8 35.9 18.1 33 12.2 NNE 20 33 11 18 - - 0.0
06/12:20pm 36.5 33.5 17.8 33 12.2 NE 30 43 16 23 - - 0.0
06/12:10pm 36.9 35.2 18.1 33 12.3 ENE 24 32 13 17 - - 0.0
06/12:00pm 36.7 35.4 18.1 33 12.2 NE 22 33 12 18 - - 0.0
06/11:50am 36.3 34.0 18.4 35 11.7 ENE 28 43 15 23 - - 0.0
06/11:40am 35.9 32.7 18.5 36 11.4 NE 33 41 18 22 - - 0.0
06/11:30am 35.8 34.3 18.5 36 11.3 NNE 24 35 13 19 - - 0.0
06/11:20am 35.8 34.3 17.8 34 11.7 NNE 22 32 12 17 - - 0.0
06/11:10am 35.6 34.1 18.5 36 11.2 NE 24 35 13 19 - - 0.0
06/11:00am 34.9 32.4 18.1 37 10.9 NE 28 33 15 18 - - 0.0
06/10:50am 34.8 31.8 18.7 38 10.5 N 32 39 17 21 - - 0.0
06/10:40am 34.3 31.7 19.9 42 9.6 NE 33 43 18 23 - - 0.0
06/10:30am 34.3 31.1 20.2 43 9.4 NE 37 41 20 22 - - 0.0
06/10:20am 34.6 31.4 20.2 43 9.6 NE 37 43 20 23 - - 0.0
06/10:10am 34.4 31.9 20.2 43 9.5 NE 33 44 18 24 - - 0.0
06/10:00am 34.5 33.0 17.7 37 10.8 NNE 22 37 12 20 - - 0.0
06/09:50am 34.1 33.3 18.1 38 10.4 N 19 24 10 13 - - 0.0
06/09:40am 33.8 33.1 18.3 39 10.1 N 19 22 10 12 - - 0.0
06/09:30am 32.6 31.7 19.0 44 8.9 N 22 28 12 15 - - 0.0
06/09:20am 32.6 31.2 19.6 46 8.6 N 26 32 14 17 - - 0.0
06/09:10am 33.5 33.4 20.0 45 9.0 N 20 24 11 13 - - 0.0
06/09:00am 32.1 31.7 19.3 46 8.4 NNW 20 24 11 13 - - 0.0
06/08:50am 31.5 30.6 19.1 47 8.1 NNW 22 26 12 14 - - 0.0
06/08:40am 30.3 29.3 19.7 53 6.9 NNW 24 28 13 15 - - 0.0
06/08:30am 29.8 28.2 20.0 55 6.4 N 28 33 15 18 - - 0.0
06/08:20am 30.3 28.8 20.2 54 6.7 NNW 28 33 15 18 - - 0.0
06/08:10am 29.9 29.2 20.3 56 6.3 NNW 24 30 13 16 - - 0.0
06/08:00am 29.7 28.5 20.0 56 6.4 NW 26 32 14 17 - - 0.0
06/07:50am 29.6 29.2 20.1 56 6.3 NW 22 28 12 15 - - 0.0
06/07:40am 29.2 29.4 21.3 62 5.3 NW 22 24 12 13 - - 0.0
06/07:30am 28.7 29.4 21.5 65 4.8 NNW 20 26 11 14 - - 0.0
06/07:20am 27.7 28.6 21.5 69 4.1 NW 19 24 10 13 - - 0.0
06/07:10am 27.0 29.1 21.7 73 3.5 NNW 13 15 7 8 - - 0.0
06/07:00am 26.8 28.9 21.7 73 3.4 N 13 15 7 8 - - 0.0
06/06:50am 26.9 29.8 21.8 73 3.4 NE 9 15 5 8 - - 0.0
06/06:40am 26.8 30.0 21.7 73 3.4 N 7 11 4 6 - - 0.0
06/06:30am 26.7 30.2 21.8 74 3.3 ENE 6 15 3 8 - - 0.0
06/06:20am 26.6 29.8 21.7 74 3.3 SE 7 9 4 5 - - 0.0
06/06:10am 26.5 30.0 21.8 75 3.1 E 6 7 3 4 - - 0.0
06/06:00am 26.4 30.2 21.7 75 3.1 E 4 6 2 3 - - 0.0
06/05:50am 26.3 29.7 21.7 76 3.1 NNE 6 7 3 4 - - 0.0
06/05:40am 26.3 28.8 21.7 76 3.1 N 11 17 6 9 - - 0.0
06/05:30am 26.3 28.8 21.7 76 3.1 N 11 15 6 8 - - 0.0
06/05:20am 26.2 28.7 21.8 77 2.9 N 11 17 6 9 - - 0.0
06/05:10am 26.2 28.7 21.8 77 2.9 N 11 17 6 9 - - 0.0
06/05:00am 26.3 28.4 21.7 76 3.1 N 13 15 7 8 - - 0.0
06/04:50am 26.4 28.1 21.7 75 3.1 N 15 22 8 12 - - 0.0
06/04:40am 26.5 27.8 21.7 75 3.2 N 17 20 9 11 - - 0.0
06/04:30am 26.6 28.2 21.5 73 3.4 N 15 20 8 11 - - 0.0
06/04:20am 26.6 28.1 21.2 72 3.6 N 15 17 8 9 - - 0.0
06/04:10am 26.6 28.4 21.1 72 3.6 N 13 17 7 9 - - 0.0
06/04:00am 26.6 27.4 20.6 69 3.9 N 17 19 9 10 - - 0.0
06/03:50am 26.6 27.4 19.9 66 4.4 NNE 15 19 8 10 - - 0.0
06/03:40am 26.7 26.8 17.4 56 5.8 NNE 13 19 7 10 - - 0.0
06/03:30am 26.6 25.8 14.1 46 7.4 NNE 11 15 6 8 - - 0.0
06/03:20am 26.6 26.7 14.4 47 7.3 NNE 7 9 4 5 - - 0.0
06/03:10am 26.7 26.7 14.2 46 7.5 NNW 7 13 4 7 - - 0.0
06/03:00am 26.8 28.0 14.9 48 7.2 S 2 6 1 3 - - 0.0
06/02:50am 27.3 27.4 14.4 45 7.7 N 7 9 4 5 - - 0.0
06/02:40am 27.6 26.5 14.4 44 7.9 ENE 13 17 7 9 - - 0.0
06/02:30am 27.6 26.5 14.2 43 8.0 ENE 13 17 7 9 - - 0.0
06/02:20am 27.6 26.1 14.2 43 8.0 E 15 17 8 9 - - 0.0
06/02:10am 27.6 27.5 14.0 43 8.1 NE 7 11 4 6 - - 0.0
06/02:00am 27.4 26.9 13.8 43 8.1 NE 9 11 5 6 - - 0.0
06/01:50am 27.2 27.0 13.7 43 8.0 E 7 11 4 6 - - 0.0
06/01:40am 27.3 27.4 13.8 43 8.0 E 6 13 3 7 - - 0.0
06/01:30am 27.4 26.8 13.5 42 8.2 NNE 9 13 5 7 - - 0.0
06/01:20am 27.9 28.1 13.2 40 8.7 N 4 7 2 4 - - 0.0
06/01:10am 28.4 28.0 13.0 38 9.1 NW 7 13 4 7 - - 0.0
06/01:00am 28.6 28.1 12.8 37 9.3 N 7 13 4 7 - - 0.0
06/12:50am 28.8 27.8 12.4 36 9.6 NW 9 15 5 8 - - 0.0
06/12:40am 29.0 28.0 12.2 35 9.8 NNW 9 13 5 7 - - 0.0
06/12:30am 29.3 28.2 11.9 34 10.1 NNW 9 11 5 6 - - 0.0
06/12:20am 29.5 27.9 11.6 33 10.4 NNW 11 17 6 9 - - 0.0
06/12:10am 29.6 27.1 11.0 31 10.7 W 15 19 8 10 - - 0.0
06/12:00am 29.7 28.5 11.6 32 10.5 W 9 13 5 7 - - 0.0
 
Date/Time
WST
Temp
°C
App
Temp
°C
Dew
Point
°C
Rel
Hum
%
Delta-T
°C
Wind Press
QNH
hPa
Press
MSL
hPa
Rain since
9am
mm
Dir  Spd
km/h
Gust
km/h
Spd
kts
Gust
kts
05/11:50pm 30.2 28.3 11.7 32 10.8 W 13 20 7 11 - - 0.0
05/11:40pm 30.5 27.7 11.5 31 11.0 W 17 19 9 10 - - 0.0
05/11:30pm 30.7 27.4 11.7 31 11.1 W 20 28 11 15 - - 0.0
05/11:20pm 30.7 27.2 12.1 32 10.9 W 22 24 12 13 - - 0.0
05/11:10pm 30.7 27.7 12.7 33 10.7 W 20 24 11 13 - - 0.0
05/11:00pm 30.8 27.9 12.9 33 10.6 W 20 28 11 15 - - 0.0
05/10:50pm 30.7 29.2 13.0 33 10.5 W 13 19 7 10 - - 0.0
05/10:40pm 30.9 29.0 13.1 33 10.6 SW 15 17 8 9 - - 0.0
05/10:30pm 31.2 29.7 13.2 33 10.8 WNW 13 17 7 9 - - 0.0
05/10:20pm 31.3 29.8 13.0 32 10.9 NW 13 17 7 9 - - 0.0
05/10:10pm 31.3 31.0 13.3 33 10.8 N 7 11 4 6 - - 0.0
05/10:00pm 31.6 31.3 13.4 33 10.9 NW 7 11 4 6 - - 0.0
05/09:50pm 31.9 31.6 13.4 32 11.1 NW 7 13 4 7 - - 0.0
05/09:40pm 32.3 31.3 13.4 31 11.4 WNW 11 19 6 10 - - 0.0
05/09:30pm 32.4 30.1 13.1 31 11.6 WNW 17 22 9 12 - - 0.0
05/09:20pm 32.5 31.5 13.4 31 11.5 WNW 11 15 6 8 - - 0.0
05/09:10pm 32.6 32.0 13.6 31 11.5 WNW 9 15 5 8 - - 0.0
05/09:00pm 32.9 31.3 13.8 31 11.6 WNW 15 20 8 11 - - 0.0
05/08:50pm 33.2 32.0 14.1 31 11.7 WNW 13 19 7 10 - - 0.0
05/08:40pm 33.4 31.7 14.6 32 11.6 W 17 22 9 12 - - 0.0
05/08:30pm 33.7 30.7 14.8 32 11.7 W 24 32 13 17 - - 0.0
05/08:20pm 33.8 30.8 14.9 32 11.7 W 24 30 13 16 - - 0.0
05/08:10pm 33.8 31.7 15.1 32 11.6 W 20 26 11 14 - - 0.0
05/08:00pm 33.7 32.2 16.4 35 10.9 NW 19 20 10 11 - - 0.0
05/07:50pm 33.7 32.9 17.1 37 10.6 NNW 17 20 9 11 - - 0.0
05/07:40pm 33.2 33.6 14.8 33 11.4 N 6 9 3 5 - - 0.0
05/07:30pm 33.2 33.4 14.6 32 11.4 NE 7 9 4 5 - - 0.0
05/07:20pm 34.2 35.3 14.5 30 12.1 W 2 6 1 3 - - 0.0
05/07:10pm 34.6 34.5 13.9 28 12.7 SW 7 11 4 6 - - 0.0
05/07:00pm 34.7 34.2 13.7 28 12.8 SW 9 11 5 6 - - 0.0
05/06:50pm 34.6 34.0 13.6 28 12.8 SW 9 11 5 6 - - 0.0
05/06:40pm 34.7 34.2 13.7 28 12.8 SW 9 9 5 5 - - 0.0
05/06:30pm 35.0 34.8 13.6 27 13.1 SW 7 9 4 5 - - 0.0
05/06:20pm 35.5 34.5 13.5 26 13.4 SW 11 13 6 7 - - 0.0
05/06:10pm 35.9 34.9 13.3 25 13.8 SW 11 17 6 9 - - 0.0
05/06:00pm 36.4 35.0 13.3 25 14.1 SSW 13 15 7 8 - - 0.0
05/05:50pm 36.8 34.6 13.2 24 14.4 SW 17 20 9 11 - - 0.0
05/05:40pm 37.2 35.4 13.2 23 14.7 SW 15 19 8 10 - - 0.0
05/05:30pm 37.5 35.2 12.9 23 15.0 SW 17 22 9 12 - - 0.0
05/05:20pm 37.6 34.7 13.0 23 15.0 SW 20 28 11 15 - - 0.0
05/05:10pm 38.2 35.3 12.9 22 15.5 SW 20 32 11 17 - - 0.0
05/05:00pm 38.8 35.8 12.7 21 15.9 SW 20 30 11 16 - - 0.0
05/04:50pm 39.2 36.4 12.7 20 16.2 SW 19 26 10 14 - - 0.0
05/04:40pm 39.4 36.3 12.2 19 16.5 SW 20 26 11 14 - - 0.0
05/04:30pm 39.1 36.1 12.5 20 16.2 SW 20 24 11 13 - - 0.0
05/04:20pm 38.7 34.5 12.5 21 16.0 SW 26 33 14 18 - - 0.0
05/04:10pm 39.8 37.1 12.8 20 16.6 SSW 19 30 10 16 - - 0.0
05/04:00pm 40.0 36.3 12.6 19 16.8 SW 24 32 13 17 - - 0.0
05/03:50pm 39.8 34.6 12.7 20 16.6 SW 32 43 17 23 - - 0.0
05/03:40pm 39.9 35.9 12.9 20 16.6 WSW 26 44 14 24 - - 0.0
05/03:30pm 40.0 37.3 13.5 21 16.4 WSW 20 32 11 17 - - 0.0
05/03:20pm 39.9 35.6 13.1 20 16.5 SW 28 39 15 21 - - 0.0
05/03:10pm 40.1 35.7 12.9 20 16.7 SW 28 41 15 22 - - 0.0
05/03:00pm 40.6 37.8 13.1 19 17.0 SW 20 33 11 18 - - 0.0
05/02:50pm 39.8 36.7 12.1 19 16.8 SSW 20 30 11 16 - - 0.0
05/02:40pm 39.8 36.6 13.0 20 16.5 SW 22 33 12 18 - - 0.0
05/02:30pm 40.4 37.2 12.0 18 17.3 WNW 20 35 11 19 - - 0.0
05/02:20pm 39.8 37.6 12.1 19 16.8 WNW 15 28 8 15 - - 0.0
05/02:10pm 40.3 37.5 13.1 20 16.8 WSW 20 39 11 21 - - 0.0
05/02:00pm 40.5 37.1 12.6 19 17.1 WSW 22 32 12 17 - - 0.0
05/01:50pm 40.1 36.5 12.9 20 16.7 W 24 30 13 16 - - 0.0
05/01:40pm 39.1 37.5 12.8 21 16.1 SSW 13 24 7 13 - - 0.0
05/01:30pm 38.1 35.7 12.8 22 15.4 SSW 17 32 9 17 - - 0.0
05/01:20pm 38.6 34.2 12.8 21 15.8 W 28 37 15 20 - - 0.0
05/01:10pm 40.0 36.0 12.9 20 16.7 WSW 26 43 14 23 - - 0.0
05/01:00pm 39.4 36.5 13.0 21 16.2 WSW 20 33 11 18 - - 0.0
05/12:50pm 39.9 36.9 12.7 20 16.7 W 20 37 11 20 - - 0.0
05/12:40pm 39.8 35.7 12.8 20 16.6 SW 26 32 14 17 - - 0.0
05/12:30pm 40.2 37.9 11.9 18 17.2 SW 15 22 8 12 - - 0.0
05/12:20pm 39.3 34.9 11.8 19 16.6 SW 26 37 14 20 - - 0.0
05/12:10pm 39.1 35.2 12.2 20 16.3 W 24 37 13 20 - - 0.0
05/12:00pm 39.2 35.4 12.4 20 16.3 WSW 24 37 13 20 - - 0.0
05/11:50am 39.5 35.2 12.2 19 16.6 WSW 26 33 14 18 - - 0.0
05/11:40am 39.1 35.8 11.7 19 16.5 SSW 20 33 11 18 - - 0.0
05/11:30am 39.2 33.7 10.7 18 16.9 WSW 30 43 16 23 - - 0.0
05/11:20am 39.4 35.8 11.9 19 16.6 WSW 22 35 12 19 - - 0.0
05/11:10am 39.0 33.6 10.8 18 16.8 WSW 30 37 16 20 - - 0.0
05/11:00am 39.0 34.1 11.3 19 16.6 WSW 28 41 15 22 - - 0.0
05/10:50am 39.0 34.0 10.9 18 16.7 WSW 28 37 15 20 - - 0.0
05/10:40am 38.9 35.1 11.0 18 16.6 SW 22 26 12 14 - - 0.0
05/10:30am 38.5 34.1 10.5 18 16.6 W 24 33 13 18 - - 0.0
05/10:20am 38.0 32.3 11.7 20 15.8 W 33 39 18 21 - - 0.0
05/10:10am 37.9 33.7 12.3 21 15.5 WSW 26 35 14 19 - - 0.0
05/10:00am 37.8 34.2 12.0 21 15.5 WSW 22 30 12 16 - - 0.0
05/09:50am 37.3 34.3 12.7 23 14.9 WSW 20 33 11 18 - - 0.0
05/09:40am 37.0 33.3 12.7 23 14.7 WSW 24 32 13 17 - - 0.0
05/09:30am 36.7 32.7 12.9 24 14.5 WSW 26 32 14 17 - - 0.0
05/09:20am 36.4 32.8 13.1 24 14.2 SW 24 35 13 19 - - 0.0
05/09:10am 36.2 32.6 13.0 24 14.1 W 24 32 13 17 - - 0.0
05/09:00am 35.6 32.8 14.2 27 13.2 W 22 26 12 14 - - 0.0
05/08:50am 35.2 32.5 14.7 29 12.7 W 22 30 12 16 - - 0.0
05/08:40am 34.5 32.0 15.1 31 12.1 W 22 24 12 13 - - 0.0
05/08:30am 34.0 32.0 15.6 33 11.5 W 20 30 11 16 - - 0.0
05/08:20am 33.6 32.5 17.2 37 10.5 W 19 32 10 17 - - 0.0
05/08:10am 33.2 32.4 17.2 38 10.2 WSW 17 22 9 12 - - 0.0
05/08:00am 32.7 31.7 17.5 40 9.7 WSW 19 24 10 13 - - 0.0
05/07:50am 32.0 30.8 17.4 41 9.3 WSW 20 26 11 14 - - 0.0
05/07:40am 31.9 30.8 17.7 42 9.1 WSW 20 26 11 14 - - 0.0
05/07:30am 31.3 30.9 18.9 47 8.1 WSW 19 24 10 13 - - 0.0
05/07:20am 31.2 31.7 19.2 48 7.8 WSW 15 20 8 11 - - 0.0
05/07:10am 30.7 31.4 19.6 51 7.3 SW 15 19 8 10 - - 0.0
05/07:00am 30.5 32.1 20.0 53 6.9 W 11 15 6 8 - - 0.0
05/06:50am 30.1 31.2 19.7 53 6.8 WSW 13 17 7 9 - - 0.0
05/06:40am 29.4 29.2 19.7 56 6.3 WSW 20 22 11 12 - - 0.0
05/06:30am 29.0 29.5 20.0 58 5.9 W 17 26 9 14 - - 0.0
05/06:20am 28.4 30.6 20.3 61 5.3 SW 9 17 5 9 - - 0.0
05/06:10am 27.5 31.6 21.6 70 3.9 SE 2 6 1 3 - - 0.0
05/06:00am 26.3 29.5 21.3 74 3.3 E 6 7 3 4 - - 0.0
05/05:50am 25.6 28.6 21.3 77 2.8 ENE 7 9 4 5 - - 0.0
05/05:40am 25.0 28.1 21.1 79 2.6 NE 6 7 3 4 - - 0.0
05/05:30am 24.5 28.0 21.1 81 2.2 SE 4 6 2 3 - - 0.0
05/05:20am 24.2 28.1 21.2 83 2.0 ESE 2 6 1 3 - - 0.0
05/05:10am 24.1 28.5 21.3 84 1.8 CALM 0 0 0 0 - - 0.0
05/05:00am 24.2 27.8 21.2 83 2.0 NNE 4 6 2 3 - - 0.0
05/04:50am 24.2 27.8 21.2 83 2.0 E 4 6 2 3 - - 0.0
05/04:40am 24.2 28.3 21.5 85 1.8 SE 2 6 1 3 - - 0.0
05/04:30am 24.4 28.6 21.7 85 1.8 SSE 2 4 1 2 - - 0.0
05/04:20am 24.6 28.4 21.6 83 2.0 SE 4 7 2 4 - - 0.0
05/04:10am 25.0 28.9 21.8 82 2.1 SSE 4 6 2 3 - - 0.0
05/04:00am 25.5 29.0 21.8 80 2.5 E 6 7 3 4 - - 0.0
05/03:50am 25.5 28.7 21.6 79 2.6 E 7 9 4 5 - - 0.0
05/03:40am 25.6 29.2 22.0 80 2.4 ESE 6 6 3 3 - - 0.0
05/03:30am 26.3 29.8 21.9 77 2.9 ENE 6 7 3 4 - - 0.0
05/03:20am 26.4 30.3 21.8 76 3.1 N 4 6 2 3 - - 0.0
05/03:10am 26.3 31.0 22.0 77 2.9 CALM 0 0 0 0 - - 0.0
05/03:00am 26.5 30.8 22.0 76 3.0 WSW 2 6 1 3 - - 0.0
05/02:50am 26.7 30.7 22.1 76 3.1 SSW 4 6 2 3 - - 0.0
05/02:40am 27.2 30.8 22.0 73 3.5 NW 6 11 3 6 - - 0.0
05/02:30am 27.3 30.6 21.9 72 3.6 NNW 7 11 4 6 - - 0.0
05/02:20am 27.4 30.9 21.9 72 3.7 NNW 6 9 3 5 - - 0.0
05/02:10am 27.6 30.8 21.7 70 3.9 NNW 7 11 4 6 - - 0.0
05/02:00am 27.8 31.3 21.8 70 4.0 NW 6 7 3 4 - - 0.0
05/01:50am 28.0 31.2 21.7 68 4.2 W 7 9 4 5 - - 0.0
05/01:40am 28.2 31.0 21.6 67 4.4 WNW 9 13 5 7 - - 0.0
05/01:30am 28.3 31.0 21.3 65 4.7 WNW 9 15 5 8 - - 0.0
05/01:20am 28.3 31.3 21.2 65 4.7 NW 7 11 4 6 - - 0.0
05/01:10am 28.4 31.5 21.1 64 4.9 WNW 6 7 3 4 - - 0.0
05/01:00am 28.5 31.3 20.9 63 5.0 WNW 7 9 4 5 - - 0.0
05/12:50am 28.7 31.5 20.8 62 5.2 WNW 7 11 4 6 - - 0.0
05/12:40am 28.8 31.6 20.8 62 5.3 WNW 7 7 4 4 - - 0.0
05/12:30am 28.9 30.9 20.7 61 5.4 NW 11 13 6 7 - - 0.0
05/12:20am 29.0 31.3 20.6 60 5.6 NNW 9 13 5 7 - - 0.0
05/12:10am 29.2 30.7 20.5 59 5.7 NNW 13 15 7 8 - - 0.0
05/12:00am 29.3 30.8 20.5 59 5.8 N 13 17 7 9 - - 0.0
 
Date/Time
WST
Temp
°C
App
Temp
°C
Dew
Point
°C
Rel
Hum
%
Delta-T
°C
Wind Press
QNH
hPa
Press
MSL
hPa
Rain since
9am
mm
Dir  Spd
km/h
Gust
km/h
Spd
kts
Gust
kts
04/11:50pm 29.4 31.0 20.8 60 5.7 N 13 17 7 9 - - 0.0
04/11:40pm 29.4 30.9 21.2 61 5.5 NNW 15 22 8 12 - - 0.0

Other formats

Comma delimited format used in spreadsheet applications
http://www.bom.gov.au/fwo/IDW60801/IDW60801.99460.axf

JavaScript Object Notation format (JSON) in row-major order
http://www.bom.gov.au/fwo/IDW60801/IDW60801.99460.json

Data quality

Most of these data are generated automatically and are frequently updated. Quality checks on data are not normally performed. It is possible for incorrect values to appear. Refer to information at About Latest Weather Observations and please check the disclaimer before using these data.